createdAt,value
2022-12-26T00:02:03.859Z,9.30
2022-12-26T00:04:51.124Z,9.30
2022-12-26T00:07:18.953Z,9.34
2022-12-26T00:09:46.759Z,9.31
2022-12-26T00:12:14.664Z,9.27
2022-12-26T00:14:42.029Z,9.19
2022-12-26T00:17:09.472Z,9.19
2022-12-26T00:19:36.970Z,9.15
2022-12-26T00:22:04.792Z,9.01
2022-12-26T00:24:32.137Z,8.97
2022-12-26T00:26:59.714Z,8.90
2022-12-26T00:29:27.169Z,8.74
2022-12-26T00:31:54.563Z,8.57
2022-12-26T00:34:22.077Z,8.43
2022-12-26T00:36:49.686Z,8.34
2022-12-26T00:39:17.804Z,8.22
2022-12-26T00:41:45.365Z,8.13
2022-12-26T00:44:12.493Z,8.07
2022-12-26T00:46:40.015Z,8.01
2022-12-26T00:49:07.723Z,7.97
2022-12-26T00:51:34.970Z,7.94
2022-12-26T00:54:02.189Z,7.88
2022-12-26T00:56:29.728Z,7.85
2022-12-26T00:58:57.190Z,7.76
2022-12-26T01:01:24.796Z,7.73
2022-12-26T01:03:52.688Z,7.69
2022-12-26T01:06:20.196Z,7.61
2022-12-26T01:08:47.389Z,7.58
2022-12-26T01:11:16.391Z,7.55
2022-12-26T01:13:44.062Z,7.57
2022-12-26T01:16:11.572Z,7.58
2022-12-26T01:18:39.028Z,7.60
2022-12-26T01:21:08.749Z,7.64
2022-12-26T01:23:35.845Z,7.67
2022-12-26T01:26:17.097Z,7.67
2022-12-26T01:28:51.217Z,7.71
2022-12-26T01:31:19.914Z,7.72
2022-12-26T01:33:47.750Z,7.72
2022-12-26T01:36:16.156Z,7.68
2022-12-26T01:38:44.020Z,7.69
2022-12-26T01:41:17.834Z,7.73
2022-12-26T01:44:07.014Z,7.72
2022-12-26T01:46:38.078Z,7.68
2022-12-26T01:49:13.425Z,7.65
2022-12-26T01:51:43.497Z,7.55
2022-12-26T01:54:39.957Z,7.45
2022-12-26T01:57:02.222Z,7.39
2022-12-26T01:59:31.170Z,7.30
2022-12-26T02:01:59.344Z,7.26
2022-12-26T02:04:48.948Z,7.24
2022-12-26T02:07:16.230Z,7.16
2022-12-26T02:09:43.676Z,7.13
2022-12-26T02:12:35.672Z,7.06
2022-12-26T02:15:10.996Z,7.03
2022-12-26T02:17:39.060Z,6.95
2022-12-26T02:20:22.165Z,6.93
2022-12-26T02:23:14.002Z,6.89
2022-12-26T02:26:12.242Z,6.89
2022-12-26T02:29:08.245Z,6.80
2022-12-26T02:31:41.528Z,6.75
2022-12-26T02:34:14.217Z,6.68
2022-12-26T02:37:13.526Z,6.61
2022-12-26T02:40:11.483Z,6.50
2022-12-26T02:43:03.247Z,6.40
2022-12-26T02:45:58.877Z,6.34
2022-12-26T02:48:41.366Z,6.31
2022-12-26T02:51:51.259Z,6.27
2022-12-26T02:54:49.168Z,6.23
2022-12-26T02:57:41.187Z,6.17
2022-12-26T03:00:33.045Z,6.12
2022-12-26T03:03:37.710Z,6.08
2022-12-26T03:06:25.969Z,6.02
2022-12-26T03:09:18.277Z,5.98
2022-12-26T03:12:10.610Z,5.96
2022-12-26T03:14:54.701Z,5.93
2022-12-26T03:17:36.272Z,5.96
2022-12-26T03:20:04.935Z,5.94
2022-12-26T03:22:35.016Z,5.95
2022-12-26T03:25:24.702Z,5.92
2022-12-26T03:27:53.848Z,5.89
2022-12-26T03:30:39.877Z,5.85
2022-12-26T03:33:27.770Z,5.83
2022-12-26T03:35:55.278Z,5.85
2022-12-26T03:38:38.090Z,5.83
2022-12-26T03:41:40.935Z,5.79
2022-12-26T03:44:53.956Z,5.72
2022-12-26T03:47:44.632Z,5.65
2022-12-26T03:50:53.291Z,5.59
2022-12-26T03:54:03.963Z,5.55
2022-12-26T03:56:57.836Z,5.60
2022-12-26T03:59:49.689Z,5.59
2022-12-26T04:02:36.457Z,5.59
2022-12-26T04:05:24.613Z,5.59
2022-12-26T04:08:18.591Z,5.62
2022-12-26T04:11:10.286Z,5.65
2022-12-26T04:14:05.486Z,5.68
2022-12-26T04:17:05.636Z,5.70
2022-12-26T04:20:04.307Z,5.69
2022-12-26T04:22:58.656Z,5.70
2022-12-26T04:25:54.963Z,5.64
2022-12-26T04:28:41.854Z,5.66
2022-12-26T04:31:55.327Z,5.66
2022-12-26T04:34:49.110Z,5.66
2022-12-26T04:37:41.117Z,5.62
2022-12-26T04:40:31.250Z,5.69
2022-12-26T04:43:48.963Z,5.76
2022-12-26T04:46:06.136Z,5.81
2022-12-26T04:48:53.671Z,5.85
2022-12-26T04:51:21.328Z,5.82
2022-12-26T04:53:48.984Z,5.81
2022-12-26T04:56:17.489Z,5.86
2022-12-26T04:58:44.865Z,5.88
2022-12-26T05:01:30.957Z,5.84
2022-12-26T05:04:16.870Z,5.84
2022-12-26T05:07:02.784Z,5.89
2022-12-26T05:09:36.898Z,5.90
2022-12-26T05:12:06.338Z,5.84
2022-12-26T05:14:36.228Z,5.85
2022-12-26T05:17:23.832Z,5.88
2022-12-26T05:20:09.884Z,5.93
2022-12-26T05:22:57.700Z,5.95
2022-12-26T05:25:46.272Z,6.01
2022-12-26T05:28:33.853Z,6.05
2022-12-26T05:31:02.252Z,5.98
2022-12-26T05:33:48.137Z,5.95
2022-12-26T05:36:16.891Z,5.99
2022-12-26T05:38:44.193Z,6.01
2022-12-26T05:41:11.701Z,6.00
2022-12-26T05:43:39.534Z,6.04
2022-12-26T05:46:07.035Z,6.10
2022-12-26T05:48:35.025Z,6.18
2022-12-26T05:51:04.390Z,6.20
2022-12-26T05:53:32.848Z,6.15
2022-12-26T05:56:05.544Z,6.11
2022-12-26T05:58:33.279Z,6.09
2022-12-26T06:01:15.385Z,6.12
2022-12-26T06:03:47.698Z,6.09
2022-12-26T06:06:15.905Z,6.08
2022-12-26T06:08:43.708Z,6.09
2022-12-26T06:11:13.625Z,6.06
2022-12-26T06:13:41.635Z,6.05
2022-12-26T06:16:14.983Z,6.09
2022-12-26T06:18:42.825Z,6.14
2022-12-26T06:21:12.659Z,6.14
2022-12-26T06:23:41.047Z,6.12
2022-12-26T06:26:10.504Z,6.12
2022-12-26T06:28:38.915Z,6.09
2022-12-26T06:31:08.769Z,6.08
2022-12-26T06:33:36.557Z,6.08
2022-12-26T06:36:05.933Z,6.04
2022-12-26T06:38:34.058Z,6.02
2022-12-26T06:41:01.952Z,6.02
2022-12-26T06:43:29.278Z,6.06
2022-12-26T06:45:58.399Z,6.11
2022-12-26T06:48:26.747Z,6.15
2022-12-26T06:50:54.884Z,6.18
2022-12-26T06:53:24.063Z,6.24
2022-12-26T06:55:51.948Z,6.26
2022-12-26T06:58:19.747Z,6.28
2022-12-26T07:00:47.697Z,6.28
2022-12-26T07:03:15.907Z,6.26
2022-12-26T07:05:43.382Z,6.24
2022-12-26T07:08:10.941Z,6.18
2022-12-26T07:10:38.666Z,6.20
2022-12-26T07:13:06.172Z,6.22
2022-12-26T07:15:34.080Z,6.22
2022-12-26T07:18:02.085Z,6.22
2022-12-26T07:20:30.523Z,6.30
2022-12-26T07:22:57.841Z,6.36
2022-12-26T07:25:25.422Z,6.38
2022-12-26T07:27:55.875Z,6.47
2022-12-26T07:30:23.325Z,6.53
2022-12-26T07:32:50.770Z,6.58
2022-12-26T07:35:18.777Z,6.65
2022-12-26T07:37:46.599Z,6.70
2022-12-26T07:40:13.897Z,6.75
2022-12-26T07:42:41.600Z,6.80
2022-12-26T07:45:09.690Z,6.86
2022-12-26T07:47:37.199Z,6.86
2022-12-26T07:50:05.434Z,6.85
2022-12-26T07:52:33.201Z,6.83
2022-12-26T07:55:00.792Z,6.80
2022-12-26T08:00:16.698Z,6.78
2022-12-26T08:02:44.459Z,6.81
2022-12-26T08:05:12.608Z,6.83
2022-12-26T08:07:40.447Z,6.86
2022-12-26T08:10:07.980Z,6.91
2022-12-26T08:12:35.978Z,6.98
2022-12-26T08:15:03.709Z,7.02
2022-12-26T08:17:33.111Z,7.04
2022-12-26T08:20:01.016Z,7.05
2022-12-26T08:22:28.987Z,6.93
2022-12-26T08:24:56.809Z,6.97
2022-12-26T08:27:24.301Z,7.07
2022-12-26T08:29:51.814Z,7.13
2022-12-26T08:32:19.459Z,7.19
2022-12-26T08:34:46.814Z,7.28
2022-12-26T08:37:14.460Z,7.24
2022-12-26T08:39:41.820Z,7.36
2022-12-26T08:42:09.630Z,7.26
2022-12-26T08:44:37.479Z,7.32
2022-12-26T08:47:05.005Z,7.32
2022-12-26T08:49:32.928Z,7.41
2022-12-26T08:52:00.352Z,7.41
2022-12-26T08:54:28.634Z,7.46
2022-12-26T08:56:56.014Z,7.55
2022-12-26T08:59:23.830Z,7.66
2022-12-26T09:01:51.248Z,7.70
2022-12-26T09:04:18.582Z,7.77
2022-12-26T09:06:46.009Z,7.94
2022-12-26T09:09:13.322Z,8.03
2022-12-26T09:11:42.219Z,8.04
2022-12-26T09:14:10.359Z,8.13
2022-12-26T09:16:49.242Z,8.25
2022-12-26T09:19:18.749Z,8.38
2022-12-26T09:21:47.492Z,8.27
2022-12-26T09:24:18.761Z,8.16
2022-12-26T09:26:46.426Z,8.14
2022-12-26T09:29:14.929Z,8.08
2022-12-26T09:31:42.346Z,8.12
2022-12-26T09:34:09.945Z,8.20
2022-12-26T09:36:38.355Z,8.34
2022-12-26T09:39:06.366Z,8.50
2022-12-26T09:41:53.029Z,8.71
2022-12-26T09:44:44.768Z,8.68
2022-12-26T09:47:27.414Z,8.47
2022-12-26T09:49:58.753Z,8.41
2022-12-26T09:52:49.391Z,8.43
2022-12-26T09:55:35.964Z,8.38
2022-12-26T09:58:22.509Z,8.35
2022-12-26T10:00:54.517Z,8.44
2022-12-26T10:03:23.514Z,8.41
2022-12-26T10:06:18.377Z,8.60
2022-12-26T10:08:55.049Z,8.52
2022-12-26T10:11:55.047Z,8.69
2022-12-26T10:14:38.437Z,8.85
2022-12-26T10:17:20.467Z,9.02
2022-12-26T10:19:53.794Z,8.96
2022-12-26T10:22:46.522Z,8.99
2022-12-26T10:25:21.694Z,8.99
2022-12-26T10:27:51.151Z,8.95
2022-12-26T10:30:25.687Z,8.96
2022-12-26T10:33:02.010Z,8.89
2022-12-26T10:35:35.531Z,8.97
2022-12-26T10:38:11.895Z,9.04
2022-12-26T10:40:44.387Z,9.07
2022-12-26T10:43:41.262Z,9.12
2022-12-26T10:46:36.121Z,9.10
2022-12-26T10:49:03.901Z,9.18
2022-12-26T10:51:31.540Z,9.22
2022-12-26T10:53:59.545Z,9.18
2022-12-26T10:56:27.489Z,8.97
2022-12-26T10:59:03.553Z,8.95
2022-12-26T11:01:31.206Z,9.06
2022-12-26T11:04:09.547Z,9.12
2022-12-26T11:06:42.104Z,9.27
2022-12-26T11:09:43.515Z,9.25
2022-12-26T11:12:31.238Z,9.06
2022-12-26T11:15:01.576Z,8.97
2022-12-26T11:17:32.183Z,8.91
2022-12-26T11:20:14.920Z,8.81
2022-12-26T11:22:43.582Z,8.91
2022-12-26T11:25:16.169Z,8.81
2022-12-26T11:27:52.079Z,8.86
2022-12-26T11:30:27.096Z,8.71
2022-12-26T11:33:14.258Z,8.75
2022-12-26T11:35:50.565Z,8.62
2022-12-26T11:38:38.970Z,8.65
2022-12-26T11:41:40.131Z,8.73
2022-12-26T11:44:10.955Z,8.78
2022-12-26T11:46:40.394Z,8.86
2022-12-26T11:49:19.732Z,8.96
2022-12-26T11:51:54.025Z,9.04
2022-12-26T11:54:30.686Z,9.13
2022-12-26T11:57:10.421Z,9.25
2022-12-26T11:59:38.114Z,9.29
2022-12-26T12:02:32.044Z,9.31
2022-12-26T12:05:05.111Z,9.24
2022-12-26T12:07:49.135Z,9.19
2022-12-26T12:10:48.740Z,9.11
2022-12-26T12:13:22.113Z,8.97
2022-12-26T12:15:52.986Z,8.79
2022-12-26T12:18:38.589Z,8.80
2022-12-26T12:21:24.879Z,8.75
2022-12-26T12:24:08.121Z,8.79
2022-12-26T12:26:41.100Z,8.63
2022-12-26T12:29:15.124Z,8.56
2022-12-26T12:32:01.301Z,8.57
2022-12-26T12:34:35.076Z,8.60
2022-12-26T12:37:11.972Z,8.60
2022-12-26T12:40:17.989Z,8.68
2022-12-26T12:42:45.605Z,8.59
2022-12-26T12:45:33.312Z,8.48
2022-12-26T12:48:36.227Z,8.47
2022-12-26T12:51:41.385Z,8.55
2022-12-26T12:54:30.974Z,8.63
2022-12-26T12:57:03.154Z,8.60
2022-12-26T12:59:31.146Z,8.50
2022-12-26T13:02:08.585Z,8.45
2022-12-26T13:04:42.082Z,8.37
2022-12-26T13:07:22.526Z,8.39
2022-12-26T13:09:54.304Z,8.25
2022-12-26T13:12:37.996Z,8.10
2022-12-26T13:15:24.204Z,8.15
2022-12-26T13:17:57.992Z,8.17
2022-12-26T13:20:41.749Z,8.15
2022-12-26T13:23:38.303Z,8.13
2022-12-26T13:26:17.311Z,8.22
2022-12-26T13:28:52.158Z,8.27
2022-12-26T13:31:21.251Z,8.31
2022-12-26T13:33:49.320Z,8.35
2022-12-26T13:36:41.827Z,8.37
2022-12-26T13:39:13.008Z,8.40
2022-12-26T13:42:06.330Z,8.46
2022-12-26T13:44:34.011Z,8.40
2022-12-26T13:47:01.642Z,8.42
2022-12-26T13:49:40.025Z,8.40
2022-12-26T13:52:16.323Z,8.41
2022-12-26T13:54:52.516Z,8.37
2022-12-26T13:57:33.469Z,8.38
2022-12-26T14:00:09.097Z,8.37
2022-12-26T14:03:15.912Z,8.30
2022-12-26T14:05:40.334Z,8.20
2022-12-26T14:08:14.359Z,8.17
2022-12-26T14:10:48.186Z,8.08
2022-12-26T14:13:45.923Z,8.09
2022-12-26T14:16:25.975Z,8.04
2022-12-26T14:19:18.341Z,7.97
2022-12-26T14:21:49.661Z,7.97
2022-12-26T14:24:36.661Z,7.91
2022-12-26T14:27:26.661Z,7.88
2022-12-26T14:30:08.495Z,7.87
2022-12-26T14:32:51.445Z,7.85
2022-12-26T14:35:40.952Z,7.78
2022-12-26T14:38:36.231Z,7.66
2022-12-26T14:41:08.048Z,7.55
2022-12-26T14:43:42.182Z,7.43
2022-12-26T14:46:31.659Z,7.29
2022-12-26T14:49:01.823Z,7.22
2022-12-26T14:51:34.360Z,7.12
2022-12-26T14:54:22.687Z,6.94
2022-12-26T14:56:51.977Z,6.84
2022-12-26T14:59:28.375Z,6.77
2022-12-26T15:02:22.628Z,6.65
2022-12-26T15:05:04.068Z,6.56
2022-12-26T15:07:50.686Z,6.46
2022-12-26T15:10:40.316Z,6.41
2022-12-26T15:13:36.301Z,6.33
2022-12-26T15:16:26.973Z,6.21
2022-12-26T15:19:09.706Z,6.08
2022-12-26T15:21:56.076Z,6.02
2022-12-26T15:27:52.226Z,5.86
2022-12-26T15:30:22.074Z,5.78
2022-12-26T15:33:08.349Z,5.72
2022-12-26T15:35:51.705Z,5.63
2022-12-26T15:38:31.501Z,5.55
2022-12-26T15:41:09.239Z,5.46
2022-12-26T15:43:52.843Z,5.37
2022-12-26T15:46:24.270Z,5.28
2022-12-26T15:49:06.857Z,5.18
2022-12-26T15:52:11.804Z,5.14
2022-12-26T15:55:02.273Z,5.11
2022-12-26T15:57:54.860Z,5.14
2022-12-26T16:00:23.867Z,5.14
2022-12-26T16:03:10.030Z,5.12
2022-12-26T16:06:01.719Z,5.12
2022-12-26T16:08:49.060Z,5.12
2022-12-26T16:11:19.720Z,5.16
2022-12-26T16:13:50.869Z,5.21
2022-12-26T16:16:28.105Z,5.25
2022-12-26T16:18:56.259Z,5.28
2022-12-26T16:21:46.048Z,5.31
2022-12-26T16:24:16.729Z,5.28
2022-12-26T16:26:45.568Z,5.23
2022-12-26T16:29:18.877Z,5.24
2022-12-26T16:31:46.993Z,5.11
2022-12-26T16:34:20.262Z,5.05
2022-12-26T16:36:50.414Z,5.06
2022-12-26T16:39:23.738Z,5.05
2022-12-26T16:42:06.734Z,5.02
2022-12-26T16:44:39.832Z,5.01
2022-12-26T16:47:10.795Z,4.95
2022-12-26T16:49:38.982Z,4.96
2022-12-26T16:52:08.423Z,4.96
2022-12-26T16:54:39.078Z,4.94
2022-12-26T16:57:11.017Z,4.95
2022-12-26T16:59:50.704Z,4.86
2022-12-26T17:02:26.374Z,4.81
2022-12-26T17:04:59.586Z,4.80
2022-12-26T17:07:27.579Z,4.69
2022-12-26T17:09:59.285Z,4.72
2022-12-26T17:12:31.755Z,4.77
2022-12-26T17:15:00.201Z,4.82
2022-12-26T17:17:34.767Z,4.83
2022-12-26T17:20:23.618Z,4.86
2022-12-26T17:22:55.860Z,4.83
2022-12-26T17:25:30.878Z,4.80
2022-12-26T17:28:15.279Z,4.82
2022-12-26T17:30:45.031Z,4.81
2022-12-26T17:33:20.765Z,4.77
2022-12-26T17:38:41.725Z,4.70
2022-12-26T17:41:10.083Z,4.70
2022-12-26T17:43:39.789Z,4.67
2022-12-26T17:46:10.358Z,4.58
2022-12-26T17:48:38.779Z,4.54
2022-12-26T17:51:08.925Z,4.64
2022-12-26T17:53:42.176Z,4.64
2022-12-26T17:56:21.300Z,4.69
2022-12-26T17:58:49.489Z,4.74
2022-12-26T18:01:21.509Z,4.75
2022-12-26T18:03:50.555Z,4.72
2022-12-26T18:06:18.173Z,4.62
2022-12-26T18:08:45.878Z,4.64
2022-12-26T18:11:15.180Z,4.57
2022-12-26T18:13:44.450Z,4.54
2022-12-26T18:16:17.364Z,4.52
2022-12-26T18:18:46.318Z,4.55
2022-12-26T18:21:15.404Z,4.59
2022-12-26T18:23:43.289Z,4.67
2022-12-26T18:26:28.055Z,4.69
2022-12-26T18:28:55.890Z,4.68
2022-12-26T18:31:23.491Z,4.70
2022-12-26T18:33:51.300Z,4.70
2022-12-26T18:36:19.305Z,4.69
2022-12-26T18:38:46.919Z,4.67
2022-12-26T18:41:19.312Z,4.65
2022-12-26T18:43:47.309Z,4.62
2022-12-26T18:46:18.302Z,4.61
2022-12-26T18:48:46.662Z,4.63
2022-12-26T18:51:14.562Z,4.59
2022-12-26T18:53:42.307Z,4.60
2022-12-26T18:56:15.139Z,4.59
2022-12-26T18:58:43.207Z,4.59
2022-12-26T19:01:13.403Z,4.57
2022-12-26T19:03:42.098Z,4.61
2022-12-26T19:06:24.658Z,4.55
2022-12-26T19:08:52.150Z,4.50
2022-12-26T19:11:20.073Z,4.42
2022-12-26T19:13:47.828Z,4.43
2022-12-26T19:16:15.374Z,4.46
2022-12-26T19:18:43.336Z,4.45
2022-12-26T19:21:14.492Z,4.44
2022-12-26T19:23:42.966Z,4.40
2022-12-26T19:26:11.454Z,4.38
2022-12-26T19:28:39.788Z,4.36
2022-12-26T19:31:15.088Z,4.39
2022-12-26T19:33:43.002Z,4.37
2022-12-26T19:36:11.161Z,4.41
2022-12-26T19:38:38.983Z,4.45
2022-12-26T19:41:12.322Z,4.49
2022-12-26T19:43:40.595Z,4.57
2022-12-26T19:46:11.609Z,4.62
2022-12-26T19:48:39.759Z,4.69
2022-12-26T19:51:12.984Z,4.78
2022-12-26T19:53:41.849Z,4.83
2022-12-26T19:56:18.460Z,4.89
2022-12-26T19:58:49.526Z,4.97
2022-12-26T20:01:23.652Z,5.04
2022-12-26T20:03:53.310Z,5.10
2022-12-26T20:06:23.609Z,5.10
2022-12-26T20:08:51.372Z,5.14
2022-12-26T20:11:23.617Z,5.16
2022-12-26T20:13:51.519Z,5.16
2022-12-26T20:17:04.560Z,5.21
2022-12-26T20:19:11.102Z,5.23
2022-12-26T20:21:39.000Z,5.27
2022-12-26T20:24:06.519Z,5.30
2022-12-26T20:26:33.866Z,5.33
2022-12-26T20:29:02.339Z,5.34
2022-12-26T20:31:32.337Z,5.36
2022-12-26T20:34:00.344Z,5.34
2022-12-26T20:36:30.397Z,5.37
2022-12-26T20:39:01.415Z,5.40
2022-12-26T20:41:31.009Z,5.37
2022-12-26T20:43:59.021Z,5.43
2022-12-26T20:46:29.966Z,5.46
2022-12-26T20:48:57.437Z,5.51
2022-12-26T20:51:36.553Z,5.55
2022-12-26T20:54:08.460Z,5.53
2022-12-26T20:56:37.053Z,5.52
2022-12-26T20:59:05.412Z,5.52
2022-12-26T21:01:33.488Z,5.54
2022-12-26T21:04:01.349Z,5.54
2022-12-26T21:06:34.345Z,5.54
2022-12-26T21:09:02.709Z,5.58
2022-12-26T21:11:33.235Z,5.57
2022-12-26T21:14:03.351Z,5.63
2022-12-26T21:16:41.282Z,5.64
2022-12-26T21:19:14.610Z,5.62
2022-12-26T21:21:45.235Z,5.55
2022-12-26T21:24:17.896Z,5.59
2022-12-26T21:26:46.119Z,5.61
2022-12-26T21:29:20.041Z,5.68
2022-12-26T21:31:48.172Z,5.75
2022-12-26T21:34:17.305Z,5.80
2022-12-26T21:37:03.549Z,5.77
2022-12-26T21:39:32.046Z,5.77
2022-12-26T21:42:00.448Z,5.76
2022-12-26T21:44:28.248Z,5.75
2022-12-26T21:46:55.560Z,5.77
2022-12-26T21:49:23.401Z,5.79
2022-12-26T21:51:50.641Z,5.84
2022-12-26T21:54:36.560Z,5.81
2022-12-26T21:57:04.363Z,5.80
2022-12-26T21:59:50.363Z,5.80
2022-12-26T22:02:36.627Z,5.76
2022-12-26T22:05:04.447Z,5.79
2022-12-26T22:07:32.053Z,5.82
2022-12-26T22:09:59.568Z,5.77
2022-12-26T22:12:45.452Z,5.79
2022-12-26T22:15:31.718Z,5.75
2022-12-26T22:17:59.369Z,5.75
2022-12-26T22:20:27.021Z,5.77
2022-12-26T22:22:55.798Z,5.76
2022-12-26T22:25:23.446Z,5.76
2022-12-26T22:27:50.943Z,5.75
2022-12-26T22:30:18.175Z,5.71
2022-12-26T22:32:45.323Z,5.70
2022-12-26T22:35:18.345Z,5.76
2022-12-26T22:37:46.284Z,5.78
2022-12-26T22:40:14.068Z,5.78
2022-12-26T22:42:41.472Z,5.75
2022-12-26T22:45:09.518Z,5.75
2022-12-26T22:47:37.179Z,5.80
2022-12-26T22:50:04.953Z,5.83
2022-12-26T22:52:32.377Z,5.82
2022-12-26T22:55:00.103Z,5.85
2022-12-26T22:57:27.584Z,5.86
2022-12-26T23:00:08.164Z,5.80
2022-12-26T23:02:37.441Z,5.87
2022-12-26T23:05:06.082Z,5.88
2022-12-26T23:07:33.575Z,5.91
2022-12-26T23:10:01.386Z,5.89
2022-12-26T23:12:44.185Z,5.84
2022-12-26T23:15:18.163Z,5.73
2022-12-26T23:18:35.598Z,5.78
2022-12-26T23:21:31.599Z,5.81
2022-12-26T23:23:59.507Z,5.84
2022-12-26T23:26:27.095Z,5.87
2022-12-26T23:29:13.095Z,5.88
2022-12-26T23:31:40.622Z,5.87
2022-12-26T23:34:08.319Z,5.82
2022-12-26T23:36:36.321Z,5.81
2022-12-26T23:39:04.217Z,5.82
2022-12-26T23:41:32.088Z,5.86
2022-12-26T23:43:59.611Z,5.84
2022-12-26T23:46:27.394Z,5.96
2022-12-26T23:48:54.759Z,6.35
2022-12-26T23:51:22.508Z,6.65
2022-12-26T23:53:50.339Z,7.04
2022-12-26T23:56:18.339Z,7.29
2022-12-26T23:58:45.705Z,7.51
